Aviation Digital Data Service (ADDS)

Output produced by METARs form (1214 UTC 26 July 2016)
found at http://aviationweather.gov/adds/metars/
 
KBWI 261124Z 2612/2718 30005KT P6SM SCT150 
     FM261300 31005KT P6SM SCT090 
     FM270000 25004KT P6SM BKN050 
     FM270800 36004KT P6SM BKN070